Time;durP1;ratioP1;P1;durP2;ratioP2;P2;SDS_P1;SDS_P2;PMS_P1;PMS_P2;Temp;Humidity;BMP_temperature;BMP_pressure;BME280_temperature;BME280_humidity;BME280_pressure;Samples;Min_cycle;Max_cycle;Signal;HPM_P1;HPM_P2
2022/10/11 00:01:13;;;;;;;11.08;6.78;;;24.80;96.50;;;;;;1842065;78;21137;-81
2022/10/11 00:03:44;;;;;;;10.88;7.08;;;24.80;96.40;;;;;;1845298;76;21641;-81
2022/10/11 00:06:15;;;;;;;17.23;12.28;;;24.80;96.00;;;;;;1837782;78;21073;-80
2022/10/11 00:08:46;;;;;;;16.62;12.53;;;24.80;96.00;;;;;;1822530;78;21530;-80
2022/10/11 00:11:16;;;;;;;9.50;6.70;;;24.80;95.90;;;;;;1803575;78;21530;-83
2022/10/11 00:13:47;;;;;;;14.13;10.90;;;24.80;95.80;;;;;;1837749;78;21390;-82
2022/10/11 00:16:18;;;;;;;13.25;8.78;;;24.90;95.80;;;;;;1832570;78;21683;-82
2022/10/11 00:18:49;;;;;;;12.68;9.48;;;24.90;95.50;;;;;;1834138;78;21678;-82
2022/10/11 00:21:20;;;;;;;12.00;7.80;;;25.00;95.60;;;;;;1840328;78;21684;-81
2022/10/11 00:23:51;;;;;;;14.28;7.80;;;25.00;95.30;;;;;;1837378;78;21094;-81
2022/10/11 00:26:22;;;;;;;14.90;10.63;;;25.00;95.50;;;;;;1832136;78;21152;-81
2022/10/11 00:28:53;;;;;;;10.15;7.05;;;25.00;95.20;;;;;;1841025;78;21609;-82
2022/10/11 00:31:24;;;;;;;12.15;8.00;;;25.10;95.50;;;;;;1835560;78;21589;-81
2022/10/11 00:33:56;;;;;;;7.72;6.17;;;25.20;95.20;;;;;;1840766;78;21083;-81
2022/10/11 00:36:27;;;;;;;10.68;5.87;;;25.30;95.10;;;;;;1843348;76;21647;-81
2022/10/11 00:38:59;;;;;;;10.55;6.47;;;25.30;94.90;;;;;;1830431;77;21137;-81
2022/10/11 00:41:30;;;;;;;7.53;6.08;;;25.40;94.80;;;;;;1833045;77;21079;-81
2022/10/11 00:44:03;;;;;;;8.20;5.50;;;25.40;94.60;;;;;;1835881;77;21557;-82
2022/10/11 00:46:34;;;;;;;8.85;6.00;;;25.40;94.40;;;;;;1827673;77;21640;-82
2022/10/11 00:49:07;;;;;;;8.38;6.00;;;25.40;94.60;;;;;;1842495;77;21148;-80
2022/10/11 00:51:41;;;;;;;9.68;5.83;;;25.40;94.50;;;;;;1834572;77;21137;-81
2022/10/11 00:54:15;;;;;;;9.03;6.33;;;25.40;94.50;;;;;;1846708;77;21561;-80
2022/10/11 00:56:48;;;;;;;9.50;6.30;;;25.40;94.50;;;;;;1830757;77;21141;-81
2022/10/11 00:59:22;;;;;;;8.03;5.85;;;25.40;94.70;;;;;;1838096;77;21679;-82
2022/10/11 01:01:53;;;;;;;9.38;6.17;;;25.50;94.50;;;;;;1834738;77;21188;-82
2022/10/11 01:04:24;;;;;;;7.47;5.58;;;25.50;94.40;;;;;;1841456;77;21303;-81
2022/10/11 01:06:56;;;;;;;8.55;5.80;;;25.50;94.40;;;;;;1808140;79;21128;-81
2022/10/11 01:09:27;;;;;;;7.70;5.55;;;25.60;94.30;;;;;;1840303;76;21169;-81
2022/10/11 01:12:01;;;;;;;8.90;6.30;;;25.60;94.30;;;;;;1845421;77;21176;-82
2022/10/11 01:14:32;;;;;;;9.60;5.22;;;25.70;94.10;;;;;;1840001;77;21762;-72
2022/10/11 01:17:04;;;;;;;8.98;5.20;;;25.70;93.50;;;;;;1840877;77;21601;-71
2022/10/11 01:19:37;;;;;;;12.95;5.83;;;25.80;93.50;;;;;;1823792;77;21664;-72
2022/10/11 01:22:10;;;;;;;10.08;5.47;;;25.90;93.50;;;;;;1839359;76;21237;-72
2022/10/11 01:24:43;;;;;;;8.13;5.17;;;26.00;93.20;;;;;;1832512;77;21117;-71
2022/10/11 01:27:16;;;;;;;7.15;5.53;;;26.00;92.90;;;;;;1828417;77;21470;-73
2022/10/11 01:29:50;;;;;;;6.03;4.22;;;26.10;93.10;;;;;;1830801;77;21581;-72
2022/10/11 01:32:23;;;;;;;7.17;4.78;;;26.10;91.70;;;;;;1833941;77;21224;-73
2022/10/11 01:34:56;;;;;;;6.72;4.45;;;26.20;91.60;;;;;;1841099;76;21676;-73
2022/10/11 01:37:29;;;;;;;30.72;7.42;;;26.20;90.90;;;;;;1826418;77;21169;-72
2022/10/11 01:40:03;;;;;;;34.45;7.40;;;26.20;90.60;;;;;;1845993;77;21602;-73
2022/10/11 01:42:35;;;;;;;6.50;4.67;;;26.20;90.60;;;;;;1836286;76;21651;-73
2022/10/11 01:45:08;;;;;;;7.40;5.53;;;26.30;90.90;;;;;;1821157;77;21171;-72
2022/10/11 01:47:41;;;;;;;9.78;4.75;;;26.30;91.00;;;;;;1836902;77;21716;-72
2022/10/11 01:50:13;;;;;;;6.75;5.40;;;26.40;90.50;;;;;;1836684;77;22271;-72
2022/10/11 01:52:46;;;;;;;7.15;4.30;;;26.40;90.20;;;;;;1840878;77;21165;-73
2022/10/11 01:55:19;;;;;;;7.95;4.47;;;26.50;90.20;;;;;;1825961;77;21160;-74
2022/10/11 01:57:52;;;;;;;6.28;4.45;;;26.50;90.00;;;;;;1773379;79;21623;-74
2022/10/11 02:00:26;;;;;;;6.72;4.03;;;26.50;88.80;;;;;;1835362;77;21565;-73
2022/10/11 02:02:57;;;;;;;5.37;4.22;;;26.50;88.50;;;;;;1830842;77;21655;-74
2022/10/11 02:05:31;;;;;;;5.03;4.20;;;26.60;89.00;;;;;;1832304;77;21145;-73
2022/10/11 02:08:04;;;;;;;6.55;4.65;;;26.60;89.00;;;;;;1821814;77;21149;-73
2022/10/11 02:10:37;;;;;;;6.15;4.12;;;26.60;89.50;;;;;;1832271;77;21200;-72
2022/10/11 02:13:11;;;;;;;7.97;5.05;;;26.60;89.00;;;;;;1832477;77;21231;-72
2022/10/11 02:15:44;;;;;;;6.65;4.22;;;26.70;88.80;;;;;;1828757;76;21687;-72
2022/10/11 02:18:17;;;;;;;7.90;4.50;;;26.70;89.50;;;;;;1827109;77;21699;-72
2022/10/11 02:20:50;;;;;;;10.32;5.08;;;26.80;89.20;;;;;;1826020;77;21715;-72
2022/10/11 02:23:23;;;;;;;27.00;6.65;;;26.80;89.20;;;;;;1828516;77;21141;-73
2022/10/11 02:25:56;;;;;;;8.48;4.72;;;26.90;88.40;;;;;;1835056;77;21077;-73
2022/10/11 02:28:29;;;;;;;7.25;4.20;;;27.00;89.80;;;;;;1827493;77;21635;-72
2022/10/11 02:31:02;;;;;;;8.25;4.25;;;27.00;89.10;;;;;;1839011;77;21137;-72
2022/10/11 02:33:36;;;;;;;9.58;5.37;;;27.00;89.60;;;;;;1845321;77;21514;-71
2022/10/11 02:36:09;;;;;;;7.37;5.05;;;27.10;89.10;;;;;;1841983;77;21628;-72
2022/10/11 02:38:43;;;;;;;7.35;4.90;;;27.20;89.10;;;;;;1845230;77;21801;-72
2022/10/11 02:41:16;;;;;;;8.43;4.85;;;27.30;89.00;;;;;;1826375;77;21594;-72
2022/10/11 02:43:49;;;;;;;6.28;4.53;;;27.30;88.70;;;;;;1822168;78;21275;-72
2022/10/11 02:46:21;;;;;;;7.40;5.22;;;27.50;88.50;;;;;;1832336;78;21631;-72
2022/10/11 02:48:52;;;;;;;7.25;4.35;;;27.50;88.60;;;;;;1822562;78;21810;-72
2022/10/11 02:51:25;;;;;;;6.42;4.42;;;27.60;88.50;;;;;;1826725;78;21223;-72
2022/10/11 02:53:56;;;;;;;6.85;4.22;;;27.70;88.30;;;;;;1831813;78;21577;-73
2022/10/11 02:56:30;;;;;;;8.70;4.72;;;27.80;87.90;;;;;;1816832;78;21098;-72
2022/10/11 02:59:01;;;;;;;7.70;4.92;;;27.90;86.90;;;;;;1824198;76;21148;-71
2022/10/11 03:01:32;;;;;;;7.37;4.50;;;28.00;85.80;;;;;;1823826;78;21169;-72
2022/10/11 03:04:03;;;;;;;11.90;4.50;;;28.10;86.00;;;;;;1848207;76;21553;-72
2022/10/11 03:06:33;;;;;;;6.28;4.12;;;28.20;86.00;;;;;;1813115;78;21606;-71
2022/10/11 03:09:05;;;;;;;9.33;5.28;;;28.30;86.20;;;;;;1821013;78;21625;-72
2022/10/11 03:11:35;;;;;;;5.95;3.92;;;28.40;85.30;;;;;;1822054;78;21208;-72
2022/10/11 03:14:06;;;;;;;7.25;4.35;;;28.50;84.20;;;;;;1830504;78;21692;-72
2022/10/11 03:16:37;;;;;;;7.75;4.20;;;28.50;86.10;;;;;;1812892;78;21490;-72
2022/10/11 03:19:08;;;;;;;4.95;4.20;;;28.60;84.50;;;;;;1810862;78;21185;-71
2022/10/11 03:21:38;;;;;;;6.58;4.70;;;28.60;84.00;;;;;;1809538;78;21653;-72
2022/10/11 03:24:09;;;;;;;8.05;4.37;;;28.70;84.00;;;;;;1826930;77;21143;-73
2022/10/11 03:26:40;;;;;;;5.78;4.40;;;28.80;83.80;;;;;;1830403;76;21141;-73
2022/10/11 03:29:10;;;;;;;6.78;4.47;;;28.80;83.80;;;;;;1828476;76;21130;-72
2022/10/11 03:31:41;;;;;;;7.55;4.62;;;28.90;83.40;;;;;;1833359;76;21606;-72
2022/10/11 03:34:12;;;;;;;6.00;4.28;;;29.00;83.30;;;;;;1829190;76;21238;-73
2022/10/11 03:36:43;;;;;;;6.58;4.35;;;29.10;82.40;;;;;;1831341;78;21291;-72
2022/10/11 03:39:14;;;;;;;8.13;4.30;;;29.20;82.10;;;;;;1822705;77;21578;-73
2022/10/11 03:41:44;;;;;;;7.12;4.22;;;29.20;82.10;;;;;;1866685;76;22240;-73
2022/10/11 03:44:15;;;;;;;8.60;4.35;;;29.30;82.20;;;;;;1857838;76;21260;-73
2022/10/11 03:46:46;;;;;;;10.45;4.60;;;29.40;81.50;;;;;;1864077;76;21265;-73
2022/10/11 03:49:17;;;;;;;5.20;3.77;;;29.50;82.10;;;;;;1868762;76;21630;-72
2022/10/11 03:51:47;;;;;;;6.00;3.55;;;29.50;81.20;;;;;;1863268;76;21112;-72
2022/10/11 03:54:18;;;;;;;7.45;4.00;;;29.50;81.40;;;;;;1878185;76;22316;-72
2022/10/11 03:56:49;;;;;;;5.10;3.95;;;29.40;80.30;;;;;;1857879;76;21166;-72
2022/10/11 03:59:20;;;;;;;9.53;4.47;;;29.40;80.70;;;;;;1873323;76;21796;-72
2022/10/11 04:01:51;;;;;;;5.45;4.08;;;29.40;83.80;;;;;;1879362;76;21116;-72
2022/10/11 04:04:22;;;;;;;6.55;3.62;;;29.50;79.00;;;;;;1870089;75;21481;-73
2022/10/11 04:06:53;;;;;;;6.17;3.72;;;29.50;78.10;;;;;;1883217;76;21092;-72
2022/10/11 04:09:23;;;;;;;5.12;3.65;;;29.50;78.60;;;;;;1870222;76;21584;-72
2022/10/11 04:11:54;;;;;;;6.67;3.85;;;29.60;81.10;;;;;;1874392;76;21662;-72
2022/10/11 04:14:26;;;;;;;6.75;3.98;;;29.60;79.50;;;;;;1865487;76;21662;-72
2022/10/11 04:16:57;;;;;;;7.53;3.60;;;29.70;78.10;;;;;;1882022;76;21129;-72
2022/10/11 04:19:29;;;;;;;7.78;3.83;;;29.70;80.00;;;;;;1859180;76;21653;-72
2022/10/11 04:21:59;;;;;;;5.62;3.90;;;29.70;78.00;;;;;;1868953;76;21144;-71
2022/10/11 04:24:30;;;;;;;5.08;3.98;;;29.60;78.00;;;;;;1865211;76;21666;-72
2022/10/11 04:27:01;;;;;;;6.45;3.80;;;29.60;78.50;;;;;;1859587;76;21068;-72
2022/10/11 04:29:32;;;;;;;5.83;3.80;;;29.70;78.30;;;;;;1878922;75;21220;-71
2022/10/11 04:32:02;;;;;;;4.47;3.02;;;29.70;79.80;;;;;;1837860;76;21140;-73
2022/10/11 04:34:33;;;;;;;9.00;3.50;;;29.70;78.60;;;;;;1827173;78;22254;-72
2022/10/11 04:37:04;;;;;;;5.70;3.65;;;29.70;78.20;;;;;;1816693;78;21502;-72
2022/10/11 04:39:35;;;;;;;5.10;3.50;;;29.70;76.60;;;;;;1826342;78;21404;-72
2022/10/11 04:42:06;;;;;;;7.95;3.67;;;29.70;76.90;;;;;;1823574;77;21168;-72
2022/10/11 04:44:37;;;;;;;6.25;3.45;;;29.60;77.80;;;;;;1826590;77;21537;-72
2022/10/11 04:47:08;;;;;;;5.37;3.25;;;29.60;77.10;;;;;;1846320;77;21148;-72
2022/10/11 04:49:39;;;;;;;7.30;3.98;;;29.70;78.60;;;;;;1828945;77;21354;-73
2022/10/11 04:52:10;;;;;;;6.33;3.22;;;29.70;76.50;;;;;;1833437;77;21565;-72
2022/10/11 04:54:41;;;;;;;6.87;4.33;;;29.90;78.20;;;;;;1821648;77;21585;-73
2022/10/11 04:57:12;;;;;;;7.40;3.72;;;29.90;76.50;;;;;;1827959;77;21233;-73
2022/10/11 04:59:43;;;;;;;5.87;3.90;;;29.90;77.00;;;;;;1797047;79;21564;-72
2022/10/11 05:02:15;;;;;;;7.17;3.90;;;29.80;78.00;;;;;;1820667;77;21173;-73
2022/10/11 05:04:47;;;;;;;6.60;4.15;;;29.80;77.80;;;;;;1822714;77;21133;-72
2022/10/11 05:07:17;;;;;;;5.75;3.75;;;29.70;77.80;;;;;;1835326;77;21187;-71
2022/10/11 05:09:48;;;;;;;6.67;3.72;;;29.70;78.20;;;;;;1829828;77;21697;-73
2022/10/11 05:12:19;;;;;;;5.50;3.50;;;29.60;78.00;;;;;;1836974;77;21121;-73
2022/10/11 05:14:50;;;;;;;6.10;3.80;;;29.50;77.50;;;;;;1840973;77;21188;-72
2022/10/11 05:17:21;;;;;;;6.00;4.00;;;29.50;77.90;;;;;;1838260;76;21137;-71
2022/10/11 05:19:51;;;;;;;6.65;3.62;;;29.40;79.40;;;;;;1829189;77;21089;-72
2022/10/11 05:22:23;;;;;;;4.85;3.72;;;29.40;79.10;;;;;;1830059;77;21576;-72
2022/10/11 05:24:53;;;;;;;6.37;3.98;;;29.40;79.00;;;;;;1840873;77;21196;-73
2022/10/11 05:27:24;;;;;;;5.72;3.67;;;29.40;79.40;;;;;;1844357;77;21616;-72
2022/10/11 05:29:54;;;;;;;4.70;3.62;;;29.30;78.50;;;;;;1832006;76;21208;-73
2022/10/11 05:32:25;;;;;;;5.60;3.40;;;29.40;79.30;;;;;;1830696;77;21577;-73
2022/10/11 05:34:56;;;;;;;4.90;3.90;;;29.40;79.40;;;;;;1837398;77;21615;-72
2022/10/11 05:37:27;;;;;;;7.00;4.17;;;29.40;79.80;;;;;;1838960;77;21118;-73
2022/10/11 05:39:58;;;;;;;5.78;4.22;;;29.50;79.80;;;;;;1835812;77;21121;-73
2022/10/11 05:42:29;;;;;;;5.33;3.67;;;29.40;79.10;;;;;;1836321;77;21214;-73
2022/10/11 05:45:00;;;;;;;5.50;3.87;;;29.50;79.10;;;;;;1880301;76;21698;-73
2022/10/11 05:47:31;;;;;;;9.25;4.03;;;29.40;79.00;;;;;;1860181;76;21096;-73
2022/10/11 05:50:02;;;;;;;6.45;3.60;;;29.50;78.50;;;;;;1856132;77;21298;-73
2022/10/11 05:52:33;;;;;;;6.50;4.42;;;29.50;79.00;;;;;;1862363;76;21183;-73
2022/10/11 05:55:04;;;;;;;7.40;4.10;;;29.50;79.40;;;;;;1880811;76;21622;-73
2022/10/11 05:57:35;;;;;;;6.10;3.98;;;29.50;78.50;;;;;;1870838;76;21144;-73
2022/10/11 06:00:07;;;;;;;6.17;3.80;;;29.50;78.90;;;;;;1858954;76;21607;-72
2022/10/11 06:02:37;;;;;;;7.62;4.10;;;29.50;79.50;;;;;;1859746;76;21825;-73
2022/10/11 06:05:09;;;;;;;6.03;4.10;;;29.60;78.60;;;;;;1867439;76;21610;-73
2022/10/11 06:07:39;;;;;;;6.55;4.17;;;29.60;78.70;;;;;;1857639;76;21160;-72
2022/10/11 06:10:11;;;;;;;6.30;4.28;;;29.50;78.90;;;;;;1874382;76;21595;-74
2022/10/11 06:12:41;;;;;;;5.67;3.90;;;29.60;79.50;;;;;;1866417;76;21226;-73
2022/10/11 06:15:13;;;;;;;6.25;4.22;;;29.50;79.50;;;;;;1873816;76;21143;-72
2022/10/11 06:17:44;;;;;;;6.75;4.67;;;29.60;79.50;;;;;;1881956;75;21576;-72
2022/10/11 06:20:15;;;;;;;6.10;4.15;;;29.60;79.60;;;;;;1864545;76;21112;-72
2022/10/11 06:22:46;;;;;;;8.23;4.03;;;29.60;80.00;;;;;;1875529;76;21076;-71
2022/10/11 06:25:20;;;;;;;7.10;4.42;;;29.60;80.10;;;;;;1876698;76;21673;-74
2022/10/11 06:27:51;;;;;;;7.83;4.15;;;29.70;79.70;;;;;;1867347;76;21513;-72
2022/10/11 06:30:23;;;;;;;5.30;3.95;;;29.80;79.90;;;;;;1867228;75;21643;-71
2022/10/11 06:32:54;;;;;;;5.95;3.92;;;29.80;79.30;;;;;;1874937;75;22111;-72
2022/10/11 06:35:26;;;;;;;9.50;4.20;;;30.00;78.60;;;;;;1872657;75;21131;-72
2022/10/11 06:37:56;;;;;;;7.50;4.40;;;30.20;78.20;;;;;;1859629;76;21167;-74
2022/10/11 06:40:28;;;;;;;5.75;4.00;;;30.30;78.90;;;;;;1861676;76;21866;-71
2022/10/11 06:42:58;;;;;;;6.10;3.83;;;30.40;77.30;;;;;;1870305;76;21497;-72
2022/10/11 06:45:29;;;;;;;6.42;4.53;;;30.50;76.60;;;;;;1857057;76;21685;-72
2022/10/11 06:48:00;;;;;;;8.25;4.22;;;30.50;76.00;;;;;;1872442;76;21571;-73
2022/10/11 06:50:31;;;;;;;7.97;4.20;;;30.60;75.90;;;;;;1877580;76;21119;-73
2022/10/11 06:53:05;;;;;;;7.55;4.45;;;30.60;76.20;;;;;;1873410;76;21202;-72
2022/10/11 06:55:35;;;;;;;7.95;4.50;;;30.70;76.60;;;;;;1879323;76;21139;-73
2022/10/11 06:58:06;;;;;;;7.03;4.40;;;30.70;76.00;;;;;;1881715;76;21108;-73
2022/10/11 07:00:37;;;;;;;4.90;3.75;;;30.80;76.40;;;;;;1858684;76;21088;-73
2022/10/11 07:03:08;;;;;;;6.35;4.25;;;30.80;76.40;;;;;;1856834;76;21675;-72
2022/10/11 07:05:39;;;;;;;6.17;4.40;;;30.80;76.10;;;;;;1860561;76;21151;-73
2022/10/11 07:08:10;;;;;;;7.05;4.15;;;30.80;75.30;;;;;;1878561;76;21088;-73
2022/10/11 07:10:40;;;;;;;7.20;4.00;;;30.80;75.10;;;;;;1868461;76;21642;-73
2022/10/11 07:13:16;;;;;;;6.05;3.87;;;30.80;75.50;;;;;;1869976;76;21172;-72
2022/10/11 07:15:45;;;;;;;5.35;4.20;;;30.70;75.40;;;;;;1826307;76;21162;-73
2022/10/11 07:18:16;;;;;;;5.33;3.52;;;30.60;75.50;;;;;;1871544;76;21536;-73
2022/10/11 07:20:46;;;;;;;6.08;3.70;;;30.60;75.80;;;;;;1875025;76;21159;-73
2022/10/11 07:23:17;;;;;;;5.87;3.98;;;30.50;76.00;;;;;;1869181;76;21143;-73
2022/10/11 07:25:53;;;;;;;6.15;3.62;;;30.50;75.60;;;;;;1874335;76;21131;-71
2022/10/11 07:28:29;;;;;;;7.53;3.75;;;30.40;75.10;;;;;;1873122;76;21128;-74
2022/10/11 07:31:03;;;;;;;6.50;3.65;;;30.40;76.30;;;;;;1870786;76;21607;-74
2022/10/11 07:33:34;;;;;;;7.40;4.37;;;30.40;75.90;;;;;;1872410;76;21085;-74
2022/10/11 07:36:06;;;;;;;7.15;3.98;;;30.40;76.30;;;;;;1869387;76;21572;-72
2022/10/11 07:38:40;;;;;;;4.25;3.45;;;30.30;76.00;;;;;;1872919;76;21237;-73
2022/10/11 07:41:11;;;;;;;8.58;3.70;;;30.30;76.20;;;;;;1871922;75;21205;-72
2022/10/11 07:43:42;;;;;;;7.35;3.30;;;30.30;76.40;;;;;;1856768;76;21078;-73
2022/10/11 07:46:14;;;;;;;5.40;3.92;;;30.30;76.60;;;;;;1833652;77;21124;-74
2022/10/11 07:48:49;;;;;;;5.92;4.15;;;30.30;76.30;;;;;;1840180;77;21668;-74
2022/10/11 07:51:27;;;;;;;4.50;3.83;;;30.30;76.80;;;;;;1836338;77;21176;-74
2022/10/11 07:53:58;;;;;;;5.30;3.62;;;30.30;77.20;;;;;;1841373;77;21603;-74
2022/10/11 07:56:30;;;;;;;8.08;4.10;;;30.30;77.20;;;;;;1837065;77;21216;-73
2022/10/11 07:59:02;;;;;;;5.20;4.12;;;30.30;76.90;;;;;;1839257;77;21155;-73
2022/10/11 08:01:33;;;;;;;7.28;4.42;;;30.30;77.40;;;;;;1849236;75;21178;-75
2022/10/11 08:04:05;;;;;;;5.67;3.75;;;30.30;77.70;;;;;;1828323;77;21656;-75
2022/10/11 08:06:36;;;;;;;5.62;4.20;;;30.30;77.60;;;;;;1833729;77;21160;-73
2022/10/11 08:09:07;;;;;;;7.03;4.25;;;30.30;77.50;;;;;;1840327;77;21075;-73
2022/10/11 08:11:38;;;;;;;5.87;4.12;;;30.30;77.70;;;;;;1844503;77;21777;-73
2022/10/11 08:14:10;;;;;;;7.08;4.33;;;30.20;77.70;;;;;;1838939;77;21179;-73
2022/10/11 08:16:40;;;;;;;6.45;4.08;;;30.20;78.00;;;;;;1834198;76;21207;-72
2022/10/11 08:19:12;;;;;;;7.10;4.03;;;30.10;78.20;;;;;;1836115;77;21089;-72
2022/10/11 08:21:42;;;;;;;7.20;4.40;;;30.00;77.90;;;;;;1840710;77;21653;-71
2022/10/11 08:24:13;;;;;;;8.60;4.72;;;30.00;78.50;;;;;;1842066;77;21133;-72
2022/10/11 08:26:45;;;;;;;6.05;4.37;;;29.90;78.00;;;;;;1845765;77;21706;-72
2022/10/11 08:29:16;;;;;;;7.90;4.03;;;29.90;78.20;;;;;;1840337;77;21230;-72
2022/10/11 08:31:47;;;;;;;4.92;3.52;;;29.90;78.20;;;;;;1836192;77;21156;-72
2022/10/11 08:34:18;;;;;;;5.42;4.00;;;29.90;78.60;;;;;;1842329;77;21600;-73
2022/10/11 08:36:49;;;;;;;6.33;4.15;;;29.90;79.00;;;;;;1841806;77;21121;-72
2022/10/11 08:39:20;;;;;;;9.73;4.70;;;29.90;78.40;;;;;;1840724;77;21821;-72
2022/10/11 08:41:53;;;;;;;8.30;4.55;;;29.90;78.80;;;;;;1840721;77;21676;-73
2022/10/11 08:44:26;;;;;;;7.00;4.20;;;29.80;78.60;;;;;;1836045;76;21827;-73
2022/10/11 08:47:00;;;;;;;8.75;3.95;;;29.90;78.80;;;;;;1835370;77;22464;-73
2022/10/11 08:49:33;;;;;;;5.28;3.80;;;29.80;78.40;;;;;;1845862;77;21164;-72
2022/10/11 08:52:06;;;;;;;5.33;3.75;;;29.90;78.80;;;;;;1839048;77;21175;-71
2022/10/11 08:54:41;;;;;;;4.97;4.10;;;29.80;79.10;;;;;;1833029;77;21122;-72
2022/10/11 08:57:15;;;;;;;7.12;3.98;;;29.80;79.70;;;;;;1833311;78;21164;-72
2022/10/11 08:59:48;;;;;;;6.37;4.60;;;29.80;80.00;;;;;;1834475;78;21212;-71
2022/10/11 09:02:21;;;;;;;5.78;4.17;;;29.80;80.00;;;;;;1840533;78;21263;-73
2022/10/11 09:04:55;;;;;;;6.70;4.03;;;29.90;79.70;;;;;;1831622;77;21199;-72
2022/10/11 09:07:26;;;;;;;6.58;4.45;;;29.90;79.70;;;;;;1828566;77;21207;-72
2022/10/11 09:09:58;;;;;;;7.45;4.40;;;29.80;79.30;;;;;;1828119;78;21066;-72
2022/10/11 09:12:32;;;;;;;6.85;4.62;;;29.90;81.70;;;;;;1830346;78;21526;-73
2022/10/11 09:15:07;;;;;;;8.95;4.42;;;29.80;81.90;;;;;;1838906;77;21217;-72
2022/10/11 09:17:40;;;;;;;7.87;5.05;;;29.80;82.40;;;;;;1836783;77;21145;-73
2022/10/11 09:20:13;;;;;;;7.28;5.00;;;29.80;82.00;;;;;;1821770;76;21133;-72
2022/10/11 09:22:47;;;;;;;17.30;8.73;;;29.80;82.10;;;;;;1828944;77;21735;-72
2022/10/11 09:25:21;;;;;;;9.00;5.75;;;29.80;82.20;;;;;;1830682;78;21169;-73
2022/10/11 09:28:03;;;;;;;7.90;4.92;;;29.80;82.30;;;;;;1828281;78;21522;-72
2022/10/11 09:30:38;;;;;;;8.68;4.85;;;29.70;82.10;;;;;;1829695;77;21641;-73
2022/10/11 09:33:11;;;;;;;;;;;29.70;82.10;;;;;;1838237;78;21118;-72
2022/10/11 09:35:44;;;;;;;9.48;5.20;;;29.60;83.00;;;;;;1824254;77;20189;-72
2022/10/11 09:38:17;;;;;;;8.48;5.17;;;29.60;83.10;;;;;;1829649;77;21549;-73
2022/10/11 09:40:51;;;;;;;8.33;5.80;;;29.60;82.90;;;;;;1830851;78;21152;-73
2022/10/11 09:43:43;;;;;;;8.08;5.25;;;29.50;83.90;;;;;;1831187;77;21185;-72
2022/10/11 09:46:16;;;;;;;8.30;4.75;;;29.50;82.90;;;;;;1826822;77;21244;-72
2022/10/11 09:48:47;;;;;;;9.15;4.97;;;29.50;83.10;;;;;;1826146;77;21876;-73
2022/10/11 09:51:20;;;;;;;7.65;4.78;;;29.40;83.20;;;;;;1817582;78;21194;-73
2022/10/11 09:53:53;;;;;;;7.22;4.83;;;29.40;83.60;;;;;;1836746;77;21216;-72
2022/10/11 09:56:27;;;;;;;8.93;5.15;;;29.40;83.50;;;;;;1829248;76;21166;-72
2022/10/11 09:59:00;;;;;;;9.28;5.05;;;29.40;83.60;;;;;;1816567;77;21423;-74
2022/10/11 10:01:32;;;;;;;8.75;4.85;;;29.30;83.70;;;;;;1825960;77;21563;-73
2022/10/11 10:04:05;;;;;;;8.95;5.53;;;29.30;83.70;;;;;;1817570;78;21212;-72
2022/10/11 10:06:37;;;;;;;8.60;4.65;;;29.30;83.50;;;;;;1827345;78;21710;-72
2022/10/11 10:09:10;;;;;;;11.08;5.40;;;29.30;83.50;;;;;;1823182;77;21267;-73
2022/10/11 10:11:41;;;;;;;9.38;5.20;;;29.30;83.60;;;;;;1859602;75;22044;-73
2022/10/11 10:14:18;;;;;;;8.80;5.60;;;29.30;83.50;;;;;;1871515;75;21306;-72
2022/10/11 10:16:56;;;;;;;10.10;5.30;;;29.30;83.10;;;;;;1867762;75;21148;-73
2022/10/11 10:19:34;;;;;;;8.28;5.15;;;29.30;83.30;;;;;;1870391;75;21609;-73
2022/10/11 10:22:06;;;;;;;9.93;5.20;;;29.30;83.20;;;;;;1861655;76;21492;-73
2022/10/11 10:24:39;;;;;;;8.63;5.22;;;29.30;82.30;;;;;;1869944;76;21155;-73
2022/10/11 10:27:13;;;;;;;14.73;5.45;;;29.20;82.50;;;;;;1870344;76;21127;-73
2022/10/11 10:29:45;;;;;;;7.78;5.15;;;29.20;82.40;;;;;;1876984;75;21668;-72
2022/10/11 10:32:19;;;;;;;8.98;5.55;;;29.20;82.40;;;;;;1856315;76;21525;-74
2022/10/11 10:34:52;;;;;;;8.78;5.67;;;29.20;82.30;;;;;;1858158;76;21643;-72
2022/10/11 10:37:26;;;;;;;9.00;5.78;;;29.20;82.70;;;;;;1836039;77;21650;-74
2022/10/11 10:39:58;;;;;;;9.25;5.42;;;29.10;82.50;;;;;;1856615;77;21089;-73
2022/10/11 10:42:29;;;;;;;10.53;6.42;;;29.10;83.60;;;;;;1860015;77;21676;-75
2022/10/11 10:45:01;;;;;;;9.43;5.22;;;29.10;82.70;;;;;;1857108;76;21078;-72
2022/10/11 10:47:35;;;;;;;10.08;6.03;;;29.10;82.70;;;;;;1831604;76;21215;-73
2022/10/11 10:50:08;;;;;;;9.73;6.08;;;29.00;82.80;;;;;;1833783;77;21172;-73
2022/10/11 10:52:40;;;;;;;11.50;5.95;;;29.00;83.10;;;;;;1828879;77;21737;-73
2022/10/11 10:55:12;;;;;;;8.48;5.83;;;29.00;83.40;;;;;;1847559;76;21256;-73
2022/10/11 10:57:46;;;;;;;9.53;5.92;;;29.00;83.60;;;;;;1770226;80;21646;-72
2022/10/11 11:00:19;;;;;;;7.92;5.55;;;29.00;83.90;;;;;;1787630;79;21531;-72
2022/10/11 11:02:52;;;;;;;6.95;5.55;;;28.90;84.00;;;;;;1849592;77;21149;-74
2022/10/11 11:05:26;;;;;;;8.38;5.85;;;28.90;84.30;;;;;;1854149;76;21202;-73
2022/10/11 11:07:58;;;;;;;11.38;5.90;;;28.90;84.30;;;;;;1850049;76;21137;-72
2022/10/11 11:10:31;;;;;;;9.10;6.25;;;28.80;84.60;;;;;;1850784;77;21658;-73
2022/10/11 11:13:03;;;;;;;9.45;5.87;;;28.80;84.70;;;;;;1845080;77;21241;-73
2022/10/11 11:15:36;;;;;;;9.35;6.12;;;28.80;84.90;;;;;;1851169;76;21731;-73
2022/10/11 11:18:09;;;;;;;13.75;7.05;;;28.80;85.10;;;;;;1848901;76;21098;-72
2022/10/11 11:20:42;;;;;;;12.53;6.70;;;28.70;85.50;;;;;;1851124;77;21612;-73
2022/10/11 11:23:15;;;;;;;10.95;6.92;;;28.70;85.50;;;;;;1850852;76;21125;-72
2022/10/11 11:25:49;;;;;;;18.55;6.53;;;28.70;85.90;;;;;;1847436;76;21553;-72
2022/10/11 11:28:20;;;;;;;12.07;6.70;;;28.70;85.90;;;;;;1849838;77;21172;-74
2022/10/11 11:30:54;;;;;;;8.60;6.62;;;28.70;86.20;;;;;;1848913;77;21651;-73
2022/10/11 11:33:27;;;;;;;10.85;7.80;;;28.70;86.30;;;;;;1859757;75;21706;-74
2022/10/11 11:36:01;;;;;;;9.75;6.62;;;28.70;86.40;;;;;;1846825;75;21172;-74
2022/10/11 11:38:35;;;;;;;9.13;6.53;;;28.70;86.30;;;;;;1854475;76;21632;-74
2022/10/11 11:41:11;;;;;;;10.15;7.00;;;28.70;86.50;;;;;;1855934;77;21089;-89
2022/10/11 11:43:48;;;;;;;10.75;6.78;;;28.70;86.50;;;;;;1858734;75;21133;-90
2022/10/11 11:46:20;;;;;;;9.43;6.90;;;28.70;86.50;;;;;;1858404;76;21137;-89
2022/10/11 11:49:11;;;;;;;13.10;6.60;;;28.70;86.60;;;;;;1864576;75;21200;-92
2022/10/11 11:51:44;;;;;;;8.18;6.60;;;28.70;86.70;;;;;;1868511;77;21112;-91
2022/10/11 11:54:19;;;;;;;10.32;6.90;;;28.70;86.70;;;;;;1871314;76;21135;-91
2022/10/11 11:56:55;;;;;;;10.75;6.83;;;28.60;86.80;;;;;;1894470;76;21056;-91
2022/10/11 11:59:39;;;;;;;10.55;7.20;;;28.60;86.90;;;;;;1876836;75;21093;-92
2022/10/11 12:02:21;;;;;;;14.43;6.97;;;28.60;87.00;;;;;;1858146;76;21243;-91
2022/10/11 12:04:58;;;;;;;11.12;6.62;;;28.60;87.10;;;;;;1896791;75;21161;-90
2022/10/11 12:07:30;;;;;;;9.35;6.83;;;28.60;87.00;;;;;;1868333;77;21164;-91
2022/10/11 12:10:03;;;;;;;9.08;6.90;;;28.60;87.20;;;;;;1874488;74;21195;-91
2022/10/11 12:12:40;;;;;;;10.32;7.15;;;28.60;87.30;;;;;;1867645;75;21611;-91
2022/10/11 12:15:19;;;;;;;10.75;7.20;;;28.60;87.30;;;;;;1874390;75;21149;-91
2022/10/11 12:17:52;;;;;;;9.90;7.05;;;28.50;87.20;;;;;;1866646;76;21453;-91
2022/10/11 12:20:31;;;;;;;11.68;6.95;;;28.50;87.00;;;;;;1859619;76;21159;-90
2022/10/11 12:23:07;;;;;;;10.23;7.28;;;28.50;87.10;;;;;;1847482;76;21231;-88
2022/10/11 12:25:42;;;;;;;12.88;7.03;;;28.50;87.10;;;;;;1867186;75;21361;-83
2022/10/11 12:28:15;;;;;;;12.07;6.70;;;28.50;87.10;;;;;;1892751;75;21176;-84
2022/10/11 12:30:45;;;;;;;10.28;6.67;;;28.50;87.00;;;;;;1869506;75;21141;-84
2022/10/11 12:33:22;;;;;;;9.70;6.30;;;28.60;87.00;;;;;;1855029;75;21172;-84
2022/10/11 12:35:51;;;;;;;10.53;7.35;;;28.60;87.00;;;;;;1860546;75;21102;-83
2022/10/11 12:38:24;;;;;;;9.93;6.85;;;28.60;87.10;;;;;;1884966;75;21244;-85
2022/10/11 12:40:59;;;;;;;9.95;6.92;;;28.60;87.30;;;;;;1844361;77;21136;-85
2022/10/11 12:43:34;;;;;;;12.18;7.58;;;28.60;87.40;;;;;;1850523;75;21171;-85
2022/10/11 12:46:07;;;;;;;12.88;7.10;;;28.60;87.30;;;;;;1876242;74;21136;-85
2022/10/11 12:48:40;;;;;;;10.13;7.83;;;28.60;87.40;;;;;;1892270;74;21085;-85
2022/10/11 12:51:13;;;;;;;10.10;6.60;;;28.60;87.30;;;;;;1872736;74;21143;-85
2022/10/11 12:53:46;;;;;;;10.60;7.00;;;28.60;87.40;;;;;;1860640;75;21108;-84
2022/10/11 12:56:20;;;;;;;12.25;7.42;;;28.60;87.40;;;;;;1868386;76;21554;-85
2022/10/11 12:58:54;;;;;;;11.63;7.10;;;28.60;87.60;;;;;;1869349;76;21248;-85
2022/10/11 13:01:26;;;;;;;10.82;7.75;;;28.60;87.70;;;;;;1896847;74;22175;-85
2022/10/11 13:03:59;;;;;;;10.65;7.62;;;28.60;87.70;;;;;;1872412;74;21159;-85
2022/10/11 13:06:33;;;;;;;12.28;7.45;;;28.60;87.70;;;;;;1890597;74;21205;-85
2022/10/11 13:09:05;;;;;;;11.57;7.65;;;28.60;88.70;;;;;;1885645;76;21154;-85
2022/10/11 13:11:38;;;;;;;12.70;7.72;;;28.60;87.90;;;;;;1895014;74;21139;-86